Time;durP1;ratioP1;P1;durP2;ratioP2;P2;SDS_P1;SDS_P2;PMS_P1;PMS_P2;Temp;Humidity;BMP_temperature;BMP_pressure;BME280_temperature;BME280_humidity;BME280_pressure;Samples;Min_cycle;Max_cycle;Signal;HPM_P1;HPM_P2
2023/05/12 00:01:47;;;;;;;12.87;3.10;;;;;;;;;;5054911;28;20227;-78
2023/05/12 00:04:14;;;;;;;8.53;3.33;;;;;;;;;;5054038;28;20209;-78
2023/05/12 00:06:41;;;;;;;7.93;2.87;;;;;;;;;;5054684;28;20282;-79
2023/05/12 00:09:10;;;;;;;9.43;3.43;;;;;;;;;;5054333;28;20253;-79
2023/05/12 00:11:37;;;;;;;11.87;3.30;;;;;;;;;;5054386;28;20307;-79
2023/05/12 00:14:05;;;;;;;11.43;3.30;;;;;;;;;;5054289;28;20199;-78
2023/05/12 00:16:32;;;;;;;7.80;3.20;;;;;;;;;;5054301;28;20207;-77
2023/05/12 00:18:59;;;;;;;6.97;3.00;;;;;;;;;;5054025;28;20296;-78
2023/05/12 00:21:26;;;;;;;7.07;2.53;;;;;;;;;;5053895;28;20206;-78
2023/05/12 00:23:53;;;;;;;7.90;2.57;;;;;;;;;;5054045;28;20298;-77
2023/05/12 00:26:22;;;;;;;6.57;2.43;;;;;;;;;;5053912;28;20694;-78
2023/05/12 00:28:49;;;;;;;9.33;3.30;;;;;;;;;;5053738;28;20227;-77
2023/05/12 00:31:17;;;;;;;7.60;3.00;;;;;;;;;;5053904;28;20253;-78
2023/05/12 00:33:44;;;;;;;8.87;3.33;;;;;;;;;;5053674;28;20317;-78
2023/05/12 00:36:11;;;;;;;12.47;3.50;;;;;;;;;;5053711;28;20206;-77
2023/05/12 00:38:40;;;;;;;8.97;2.90;;;;;;;;;;5054066;28;20291;-78
2023/05/12 00:41:07;;;;;;;8.03;3.37;;;;;;;;;;5053719;28;20206;-78
2023/05/12 00:43:35;;;;;;;10.77;2.97;;;;;;;;;;5053700;28;20200;-78
2023/05/12 00:46:04;;;;;;;8.67;3.20;;;;;;;;;;5054177;28;20231;-78
2023/05/12 00:48:32;;;;;;;8.50;3.20;;;;;;;;;;5053234;28;20333;-78
2023/05/12 00:51:00;;;;;;;9.37;3.10;;;;;;;;;;5052277;28;20293;-78
2023/05/12 00:53:27;;;;;;;7.70;3.27;;;;;;;;;;5053530;28;20229;-78
2023/05/12 00:55:56;;;;;;;13.83;4.33;;;;;;;;;;5053799;28;20290;-78
2023/05/12 00:58:23;;;;;;;11.67;4.10;;;;;;;;;;5053530;28;20195;-78
2023/05/12 01:00:52;;;;;;;12.77;3.57;;;;;;;;;;5053238;28;20206;-77
2023/05/12 01:03:19;;;;;;;13.43;3.60;;;;;;;;;;5053082;28;20273;-78
2023/05/12 01:05:49;;;;;;;10.27;3.50;;;;;;;;;;5053652;28;20286;-78
2023/05/12 01:08:17;;;;;;;13.20;3.97;;;;;;;;;;5053262;28;20223;-77
2023/05/12 01:10:44;;;;;;;9.47;3.53;;;;;;;;;;5053360;28;20220;-77
2023/05/12 01:13:12;;;;;;;13.23;3.90;;;;;;;;;;5053314;28;20234;-77
2023/05/12 01:15:41;;;;;;;11.60;3.80;;;;;;;;;;5053077;28;20371;-77
2023/05/12 01:18:11;;;;;;;12.13;4.23;;;;;;;;;;5053011;28;20202;-78
2023/05/12 01:20:38;;;;;;;11.00;4.83;;;;;;;;;;5053069;28;20678;-78
2023/05/12 01:23:06;;;;;;;10.87;4.27;;;;;;;;;;5053137;28;20290;-79
2023/05/12 01:25:34;;;;;;;14.47;3.83;;;;;;;;;;5052614;28;20235;-77
2023/05/12 01:28:06;;;;;;;8.13;3.40;;;;;;;;;;5052691;28;20804;-78
2023/05/12 01:30:33;;;;;;;7.77;3.20;;;;;;;;;;5053130;28;20675;-79
2023/05/12 01:33:00;;;;;;;8.17;3.20;;;;;;;;;;5052545;28;20742;-78
2023/05/12 01:35:27;;;;;;;7.67;3.20;;;;;;;;;;5052626;28;20226;-77
2023/05/12 01:37:55;;;;;;;8.97;3.60;;;;;;;;;;5052919;28;20225;-78
2023/05/12 01:40:22;;;;;;;8.93;3.30;;;;;;;;;;5052862;28;20226;-77
2023/05/12 01:42:50;;;;;;;10.37;3.70;;;;;;;;;;5052265;28;20199;-78
2023/05/12 01:45:19;;;;;;;10.23;3.20;;;;;;;;;;5052551;28;20290;-78
2023/05/12 01:47:46;;;;;;;8.47;3.70;;;;;;;;;;5052356;28;20222;-78
2023/05/12 01:50:13;;;;;;;8.87;3.70;;;;;;;;;;5052111;28;20322;-77
2023/05/12 01:52:40;;;;;;;8.77;3.37;;;;;;;;;;5052231;28;20688;-79
2023/05/12 01:55:08;;;;;;;10.10;3.40;;;;;;;;;;5052859;28;20294;-78
2023/05/12 01:57:35;;;;;;;10.97;3.47;;;;;;;;;;5052471;28;20231;-78
2023/05/12 02:00:02;;;;;;;12.27;3.47;;;;;;;;;;5052818;28;20225;-78
2023/05/12 02:02:33;;;;;;;10.03;4.27;;;;;;;;;;5052113;28;20626;-78
2023/05/12 02:05:00;;;;;;;13.90;4.50;;;;;;;;;;5052742;28;20230;-79
2023/05/12 02:07:27;;;;;;;10.97;4.53;;;;;;;;;;5052381;28;20290;-78
2023/05/12 02:09:54;;;;;;;13.37;4.77;;;;;;;;;;5051896;28;20323;-78
2023/05/12 02:12:21;;;;;;;10.70;4.47;;;;;;;;;;5030038;28;20228;-78
2023/05/12 02:14:49;;;;;;;10.83;3.80;;;;;;;;;;5039826;28;20618;-78
2023/05/12 02:17:16;;;;;;;7.73;3.53;;;;;;;;;;5052306;28;20682;-78
2023/05/12 02:19:44;;;;;;;9.60;3.37;;;;;;;;;;5052134;28;20205;-79
2023/05/12 02:22:12;;;;;;;8.80;3.57;;;;;;;;;;5052050;28;20204;-78
2023/05/12 02:24:39;;;;;;;7.23;3.57;;;;;;;;;;5052304;28;20381;-79
2023/05/12 02:27:06;;;;;;;7.57;3.70;;;;;;;;;;5052120;28;20202;-78
2023/05/12 02:29:33;;;;;;;12.23;4.27;;;;;;;;;;5051210;28;20227;-78
2023/05/12 02:32:00;;;;;;;16.70;4.83;;;;;;;;;;5051793;28;20227;-77
2023/05/12 02:34:28;;;;;;;17.20;5.13;;;;;;;;;;5052237;28;20198;-78
2023/05/12 02:36:56;;;;;;;17.10;4.83;;;;;;;;;;5051587;28;20235;-77
2023/05/12 02:39:23;;;;;;;39.17;5.40;;;;;;;;;;5051667;28;20629;-77
2023/05/12 02:41:50;;;;;;;15.77;5.57;;;;;;;;;;5051288;28;20735;-77
2023/05/12 02:44:21;;;;;;;13.87;4.70;;;;;;;;;;5051478;28;20283;-77
2023/05/12 02:46:48;;;;;;;34.23;5.43;;;;;;;;;;5051217;28;20191;-77
2023/05/12 02:49:15;;;;;;;35.50;5.10;;;;;;;;;;5050886;28;20330;-77
2023/05/12 02:51:42;;;;;;;38.53;4.50;;;;;;;;;;5051557;28;20203;-77
2023/05/12 02:54:11;;;;;;;21.07;4.90;;;;;;;;;;5051336;28;20289;-77
2023/05/12 02:56:38;;;;;;;17.23;4.70;;;;;;;;;;5051348;28;20728;-77
2023/05/12 02:59:05;;;;;;;20.73;4.00;;;;;;;;;;5050996;28;20195;-78
2023/05/12 03:01:32;;;;;;;10.50;3.93;;;;;;;;;;5051040;28;20291;-78
2023/05/12 03:03:59;;;;;;;7.77;3.93;;;;;;;;;;5051362;28;20751;-77
2023/05/12 03:06:27;;;;;;;7.03;3.57;;;;;;;;;;5051201;28;20203;-77
2023/05/12 03:08:54;;;;;;;28.07;4.50;;;;;;;;;;5050781;28;20744;-78
2023/05/12 03:11:23;;;;;;;6.47;3.57;;;;;;;;;;5051083;28;20565;-78
2023/05/12 03:13:50;;;;;;;11.27;4.20;;;;;;;;;;5050544;28;20195;-77
2023/05/12 03:16:17;;;;;;;4.60;4.00;;;;;;;;;;5051086;28;20196;-78
2023/05/12 03:18:44;;;;;;;6.67;3.93;;;;;;;;;;5051462;28;20290;-77
2023/05/12 03:21:12;;;;;;;22.77;4.23;;;;;;;;;;5051127;28;20203;-78
2023/05/12 03:23:39;;;;;;;21.97;4.40;;;;;;;;;;5051083;28;20226;-78
2023/05/12 03:26:06;;;;;;;23.40;4.17;;;;;;;;;;5051115;28;20292;-78
2023/05/12 03:28:35;;;;;;;26.40;4.70;;;;;;;;;;5050554;28;20748;-78
2023/05/12 03:31:02;;;;;;;13.37;3.93;;;;;;;;;;5051200;28;20278;-78
2023/05/12 03:33:29;;;;;;;45.37;4.73;;;;;;;;;;5051317;28;20283;-77
2023/05/12 03:35:56;;;;;;;52.13;4.80;;;;;;;;;;5050904;28;20207;-77
2023/05/12 03:38:23;;;;;;;15.57;3.83;;;;;;;;;;5050802;28;20647;-78
2023/05/12 03:40:52;;;;;;;18.57;4.10;;;;;;;;;;5050679;28;20724;-78
2023/05/12 03:43:20;;;;;;;29.90;4.67;;;;;;;;;;5050414;28;20237;-78
2023/05/12 03:45:48;;;;;;;13.37;3.80;;;;;;;;;;5051060;28;20196;-77
2023/05/12 03:48:15;;;;;;;12.47;3.90;;;;;;;;;;5050561;28;20291;-78
2023/05/12 03:50:42;;;;;;;39.43;4.73;;;;;;;;;;5050874;28;20302;-78
2023/05/12 03:53:10;;;;;;;37.20;4.40;;;;;;;;;;5050914;28;20305;-77
2023/05/12 03:55:37;;;;;;;18.20;3.80;;;;;;;;;;5050903;28;20294;-78
2023/05/12 03:58:04;;;;;;;45.10;4.67;;;;;;;;;;5050060;28;20231;-78
2023/05/12 04:00:31;;;;;;;37.93;4.30;;;;;;;;;;5050697;28;20307;-78
2023/05/12 04:03:00;;;;;;;21.77;4.07;;;;;;;;;;5050982;28;20201;-78
2023/05/12 04:05:27;;;;;;;12.67;3.80;;;;;;;;;;5050684;28;20205;-79
2023/05/12 04:07:54;;;;;;;21.30;4.10;;;;;;;;;;5050734;28;20222;-78
2023/05/12 04:10:22;;;;;;;26.97;4.03;;;;;;;;;;5050336;28;20263;-78
2023/05/12 04:12:49;;;;;;;16.63;4.07;;;;;;;;;;5050536;28;20294;-77
2023/05/12 04:15:16;;;;;;;17.07;3.87;;;;;;;;;;5050483;28;20310;-78
2023/05/12 04:17:43;;;;;;;26.57;4.10;;;;;;;;;;5050577;28;20295;-78
2023/05/12 04:20:12;;;;;;;26.37;4.10;;;;;;;;;;5050309;28;20237;-78
2023/05/12 04:22:39;;;;;;;41.47;4.17;;;;;;;;;;5050827;28;20284;-77
2023/05/12 04:25:07;;;;;;;38.57;4.20;;;;;;;;;;5050275;28;20711;-77
2023/05/12 04:27:34;;;;;;;37.83;4.60;;;;;;;;;;5052897;28;20223;-78
2023/05/12 04:30:01;;;;;;;35.60;3.77;;;;;;;;;;5054374;28;20794;-78
2023/05/12 04:32:28;;;;;;;14.47;3.60;;;;;;;;;;5053789;28;20198;-78
2023/05/12 04:34:56;;;;;;;7.50;3.30;;;;;;;;;;5053806;28;20738;-78
2023/05/12 04:37:25;;;;;;;25.43;3.80;;;;;;;;;;5054065;28;20226;-78
2023/05/12 04:39:52;;;;;;;17.73;3.80;;;;;;;;;;5053523;28;20269;-78
2023/05/12 04:42:19;;;;;;;25.53;3.83;;;;;;;;;;5053941;28;20204;-76
2023/05/12 04:44:46;;;;;;;28.30;4.17;;;;;;;;;;5054076;28;20224;-78
2023/05/12 04:47:13;;;;;;;32.33;4.90;;;;;;;;;;5053765;28;20544;-77
2023/05/12 04:49:40;;;;;;;35.43;4.53;;;;;;;;;;5053171;28;20331;-78
2023/05/12 04:52:08;;;;;;;17.23;4.03;;;;;;;;;;5053844;28;20222;-77
2023/05/12 04:54:37;;;;;;;20.17;3.10;;;;;;;;;;5053475;28;20230;-78
2023/05/12 04:57:05;;;;;;;10.63;3.20;;;;;;;;;;5053401;28;20705;-78
2023/05/12 04:59:32;;;;;;;32.07;3.67;;;;;;;;;;5053414;28;20231;-78
2023/05/12 05:01:59;;;;;;;12.47;3.07;;;;;;;;;;5053461;28;20196;-78
2023/05/12 05:04:26;;;;;;;19.73;3.20;;;;;;;;;;5053294;28;20237;-80
2023/05/12 05:06:54;;;;;;;8.63;3.30;;;;;;;;;;5053129;28;20237;-82
2023/05/12 05:09:21;;;;;;;21.77;3.93;;;;;;;;;;5052486;28;20343;-80
2023/05/12 05:11:50;;;;;;;14.70;4.50;;;;;;;;;;5053391;28;20249;-80
2023/05/12 05:14:17;;;;;;;12.83;3.37;;;;;;;;;;5053038;28;20227;-80
2023/05/12 05:16:45;;;;;;;21.93;4.10;;;;;;;;;;5053486;28;20247;-80
2023/05/12 05:19:12;;;;;;;13.83;4.20;;;;;;;;;;5053043;28;20200;-79
2023/05/12 05:21:39;;;;;;;17.10;4.37;;;;;;;;;;5052940;28;20226;-80
2023/05/12 05:24:07;;;;;;;42.30;4.63;;;;;;;;;;5052370;28;20292;-80
2023/05/12 05:26:34;;;;;;;42.10;4.60;;;;;;;;;;5053281;28;20195;-79
2023/05/12 05:29:03;;;;;;;37.67;5.03;;;;;;;;;;5052706;28;20274;-80
2023/05/12 05:31:30;;;;;;;14.63;4.67;;;;;;;;;;5052651;28;20284;-80
2023/05/12 05:33:57;;;;;;;13.30;4.17;;;;;;;;;;5053292;28;20235;-80
2023/05/12 05:36:25;;;;;;;40.07;4.80;;;;;;;;;;5046399;28;20233;-80
2023/05/12 05:38:52;;;;;;;20.20;4.60;;;;;;;;;;5032009;28;20203;-81
2023/05/12 05:41:20;;;;;;;11.73;4.23;;;;;;;;;;5034066;28;20287;-78
2023/05/12 05:43:47;;;;;;;22.80;4.17;;;;;;;;;;5046054;28;20233;-79
2023/05/12 05:46:15;;;;;;;42.67;5.03;;;;;;;;;;5037481;28;20719;-80
2023/05/12 05:48:42;;;;;;;11.33;4.47;;;;;;;;;;5031667;28;20260;-80
2023/05/12 05:51:11;;;;;;;47.03;5.50;;;;;;;;;;5032503;28;20673;-80
2023/05/12 05:53:38;;;;;;;21.97;4.23;;;;;;;;;;5031934;28;20200;-80
2023/05/12 05:56:05;;;;;;;39.40;4.07;;;;;;;;;;5032419;28;20301;-81
2023/05/12 05:58:33;;;;;;;21.63;4.20;;;;;;;;;;5032554;28;20295;-80
2023/05/12 06:01:00;;;;;;;37.17;4.67;;;;;;;;;;5032631;28;20693;-79
2023/05/12 06:03:28;;;;;;;23.93;4.20;;;;;;;;;;5032583;28;20284;-80
2023/05/12 06:05:56;;;;;;;84.97;6.53;;;;;;;;;;5032573;28;20627;-80
2023/05/12 06:08:23;;;;;;;23.63;4.50;;;;;;;;;;5032144;28;20234;-80
2023/05/12 06:10:51;;;;;;;19.83;4.33;;;;;;;;;;5032778;28;20326;-80
2023/05/12 06:13:18;;;;;;;20.50;4.37;;;;;;;;;;5032591;28;20219;-80
2023/05/12 06:15:45;;;;;;;22.10;4.23;;;;;;;;;;5052058;28;20196;-79
2023/05/12 06:18:12;;;;;;;15.83;3.47;;;;;;;;;;5052506;28;20227;-80
2023/05/12 06:20:41;;;;;;;14.23;3.80;;;;;;;;;;5052232;28;20287;-81
2023/05/12 06:23:08;;;;;;;19.50;4.33;;;;;;;;;;5051857;28;20220;-80
2023/05/12 06:25:35;;;;;;;7.67;4.20;;;;;;;;;;5052087;28;20278;-80
2023/05/12 06:28:03;;;;;;;22.90;4.97;;;;;;;;;;5052013;28;20611;-80
2023/05/12 06:30:30;;;;;;;59.43;6.33;;;;;;;;;;5052413;28;20322;-81
2023/05/12 06:32:58;;;;;;;36.17;5.13;;;;;;;;;;5044244;28;20555;-80
2023/05/12 06:35:25;;;;;;;5.70;3.77;;;;;;;;;;5032049;28;20283;-81
2023/05/12 06:37:54;;;;;;;7.37;3.27;;;;;;;;;;5031710;28;20235;-80
2023/05/12 06:40:21;;;;;;;8.10;3.87;;;;;;;;;;5032446;28;20300;-80
2023/05/12 06:42:48;;;;;;;7.37;4.07;;;;;;;;;;5032049;28;20216;-82
2023/05/12 06:45:15;;;;;;;6.27;3.53;;;;;;;;;;5031962;28;20202;-80
2023/05/12 06:47:43;;;;;;;4.83;3.50;;;;;;;;;;5031806;28;20254;-81
2023/05/12 06:50:10;;;;;;;4.23;3.40;;;;;;;;;;5030728;28;20331;-80
2023/05/12 06:52:37;;;;;;;5.20;3.33;;;;;;;;;;5031546;28;20224;-80
2023/05/12 06:55:07;;;;;;;6.90;3.70;;;;;;;;;;5031631;28;20228;-80
2023/05/12 06:57:34;;;;;;;4.75;3.35;;;;;;;;;;5031338;28;20196;-79
2023/05/12 07:00:02;;;;;;;4.25;3.05;;;;;;;;;;5031959;28;20291;-80
2023/05/12 07:02:29;;;;;;;4.72;3.25;;;;;;;;;;5031862;28;20201;-80
2023/05/12 07:04:56;;;;;;;4.32;2.70;;;;;;;;;;5031208;28;20196;-81
2023/05/12 07:07:23;;;;;;;4.80;2.92;;;;;;;;;;5031782;28;20227;-80
2023/05/12 07:09:50;;;;;;;3.95;2.80;;;;;;;;;;5031350;28;20252;-80
2023/05/12 07:12:19;;;;;;;7.00;3.28;;;;;;;;;;5031610;28;20200;-80
2023/05/12 07:14:46;;;;;;;4.15;2.70;;;;;;;;;;5031809;28;20224;-80
2023/05/12 07:17:13;;;;;;;3.97;2.78;;;;;;;;;;5031273;28;20242;-81
2023/05/12 07:19:42;;;;;;;4.13;2.58;;;;;;;;;;5030731;28;20299;-80
2023/05/12 07:22:09;;;;;;;4.53;2.83;;;;;;;;;;5031541;28;20697;-81
2023/05/12 07:24:37;;;;;;;4.45;2.97;;;;;;;;;;5030918;28;20696;-81
2023/05/12 07:27:04;;;;;;;5.30;2.60;;;;;;;;;;5031049;28;20707;-80
2023/05/12 07:29:33;;;;;;;4.82;3.05;;;;;;;;;;5031251;28;20810;-80
2023/05/12 07:32:01;;;;;;;6.30;2.60;;;;;;;;;;5031159;28;20201;-80
2023/05/12 07:34:28;;;;;;;5.63;3.20;;;;;;;;;;5031211;28;20227;-81
2023/05/12 07:36:55;;;;;;;7.47;3.00;;;;;;;;;;5031222;28;20217;-80
2023/05/12 07:39:23;;;;;;;5.07;2.42;;;;;;;;;;5031068;28;20231;-80
2023/05/12 07:41:52;;;;;;;3.20;2.55;;;;;;;;;;5031356;28;20200;-81
2023/05/12 07:44:19;;;;;;;6.30;2.97;;;;;;;;;;5031224;28;20205;-80
2023/05/12 07:46:48;;;;;;;5.68;2.55;;;;;;;;;;5031053;28;20203;-80
2023/05/12 07:49:15;;;;;;;5.82;2.58;;;;;;;;;;5030458;28;20256;-80
2023/05/12 07:51:42;;;;;;;4.53;1.88;;;;;;;;;;5031113;28;20322;-81
2023/05/12 07:54:09;;;;;;;7.22;2.58;;;;;;;;;;5030924;28;20259;-81
2023/05/12 07:56:36;;;;;;;3.15;2.28;;;;;;;;;;5031411;28;20291;-80
2023/05/12 07:59:03;;;;;;;7.28;2.50;;;;;;;;;;5030954;28;20228;-81
2023/05/12 08:01:31;;;;;;;3.15;2.17;;;;;;;;;;5033311;28;20752;-77
2023/05/12 08:03:59;;;;;;;6.68;2.35;;;;;;;;;;5034264;28;20206;-81
2023/05/12 08:06:26;;;;;;;4.80;2.00;;;;;;;;;;5034893;28;20501;-82
2023/05/12 08:08:56;;;;;;;3.55;1.60;;;;;;;;;;5035119;28;20627;-81
2023/05/12 08:11:23;;;;;;;4.25;1.67;;;;;;;;;;5034400;28;20250;-81
2023/05/12 08:13:51;;;;;;;4.05;1.70;;;;;;;;;;5039462;28;20291;-79
2023/05/12 08:16:18;;;;;;;6.72;2.30;;;;;;;;;;5054650;28;20231;-81
2023/05/12 08:18:45;;;;;;;3.65;1.55;;;;;;;;;;5054380;28;20234;-81
2023/05/12 08:21:13;;;;;;;2.95;1.42;;;;;;;;;;5054455;28;20386;-80
2023/05/12 08:23:41;;;;;;;5.40;1.90;;;;;;;;;;5054341;28;20318;-80
2023/05/12 08:26:08;;;;;;;3.78;1.88;;;;;;;;;;5054349;28;20282;-80
2023/05/12 08:28:35;;;;;;;6.07;1.58;;;;;;;;;;5054471;28;20253;-80
2023/05/12 08:31:02;;;;;;;5.70;1.90;;;;;;;;;;5053914;28;20315;-81
2023/05/12 08:33:29;;;;;;;3.78;1.60;;;;;;;;;;5054047;28;20250;-80
2023/05/12 08:35:57;;;;;;;3.83;1.33;;;;;;;;;;5053965;28;20227;-80
2023/05/12 08:38:26;;;;;;;5.03;1.73;;;;;;;;;;5054246;28;20298;-81
2023/05/12 08:40:57;;;;;;;4.63;1.80;;;;;;;;;;5054440;28;20260;-80
2023/05/12 08:43:25;;;;;;;4.85;1.67;;;;;;;;;;5053853;28;20287;-81
2023/05/12 08:45:56;;;;;;;6.55;1.80;;;;;;;;;;5054128;28;20204;-80
2023/05/12 08:48:26;;;;;;;3.17;1.55;;;;;;;;;;5053610;28;20246;-80
2023/05/12 08:50:54;;;;;;;5.45;1.77;;;;;;;;;;5053327;28;20228;-80
2023/05/12 08:53:22;;;;;;;3.03;1.52;;;;;;;;;;5053999;28;20249;-80
2023/05/12 08:55:51;;;;;;;5.03;1.63;;;;;;;;;;5053935;28;20199;-80
2023/05/12 08:58:18;;;;;;;3.78;1.60;;;;;;;;;;5053777;28;20196;-80
2023/05/12 09:00:46;;;;;;;5.28;1.83;;;;;;;;;;5052902;28;20708;-81
2023/05/12 09:03:14;;;;;;;4.35;1.83;;;;;;;;;;5053379;28;20207;-81
2023/05/12 09:05:42;;;;;;;3.92;1.75;;;;;;;;;;5053627;28;20206;-82
2023/05/12 09:08:10;;;;;;;3.45;1.60;;;;;;;;;;5053472;28;20247;-80
2023/05/12 09:10:37;;;;;;;2.80;1.77;;;;;;;;;;5053582;28;20253;-79
2023/05/12 09:13:09;;;;;;;3.28;1.55;;;;;;;;;;5052240;28;20249;-79
2023/05/12 09:15:39;;;;;;;4.60;1.73;;;;;;;;;;5052748;28;20210;-81
2023/05/12 09:18:06;;;;;;;4.30;1.48;;;;;;;;;;5053480;28;20715;-82
2023/05/12 09:20:33;;;;;;;4.15;1.60;;;;;;;;;;5053370;28;20202;-80
2023/05/12 09:23:11;;;;;;;2.28;1.63;;;;;;;;;;5053298;28;20228;-81
2023/05/12 09:25:38;;;;;;;5.38;2.00;;;;;;;;;;5053123;28;20204;-80
2023/05/12 09:28:07;;;;;;;3.67;1.75;;;;;;;;;;5053413;28;20215;-81
2023/05/12 09:30:37;;;;;;;2.55;1.48;;;;;;;;;;5052351;28;20314;-81
2023/05/12 09:33:07;;;;;;;3.08;1.25;;;;;;;;;;5053203;28;20204;-80
2023/05/12 09:35:39;;;;;;;3.42;1.20;;;;;;;;;;5053106;28;20202;-81
2023/05/12 09:38:07;;;;;;;3.17;1.20;;;;;;;;;;5053067;28;20203;-81
2023/05/12 09:40:34;;;;;;;4.03;1.30;;;;;;;;;;5053062;28;20207;-80
2023/05/12 09:43:01;;;;;;;4.13;1.30;;;;;;;;;;5053023;28;20633;-80
2023/05/12 09:45:30;;;;;;;2.35;0.80;;;;;;;;;;5052675;28;20279;-80
2023/05/12 09:47:57;;;;;;;2.55;1.08;;;;;;;;;;5052787;28;20273;-80
2023/05/12 09:50:24;;;;;;;3.30;1.00;;;;;;;;;;5052343;28;20263;-79
2023/05/12 09:52:51;;;;;;;4.25;1.10;;;;;;;;;;5052887;28;20220;-80
2023/05/12 09:55:19;;;;;;;1.02;0.70;;;;;;;;;;5052659;28;20278;-80
2023/05/12 09:57:47;;;;;;;3.83;0.85;;;;;;;;;;5052828;28;20246;-81
2023/05/12 10:00:16;;;;;;;1.45;0.80;;;;;;;;;;5052216;28;20698;-80
2023/05/12 10:02:45;;;;;;;4.03;1.10;;;;;;;;;;5052424;28;20199;-80
2023/05/12 10:05:15;;;;;;;1.80;0.70;;;;;;;;;;5052147;28;20294;-81
2023/05/12 10:07:43;;;;;;;1.60;0.60;;;;;;;;;;5052899;28;20192;-80
2023/05/12 10:10:10;;;;;;;1.77;1.00;;;;;;;;;;5052309;28;20715;-80
2023/05/12 10:12:38;;;;;;;2.40;0.68;;;;;;;;;;5052180;28;20283;-81
2023/05/12 10:15:07;;;;;;;1.98;0.85;;;;;;;;;;5052009;28;20295;-81
2023/05/12 10:17:35;;;;;;;2.95;1.00;;;;;;;;;;5052351;28;20196;-81
2023/05/12 10:20:05;;;;;;;1.77;0.80;;;;;;;;;;5051992;28;20238;-81
2023/05/12 10:22:34;;;;;;;1.55;0.90;;;;;;;;;;5052258;28;20196;-81
2023/05/12 10:25:02;;;;;;;2.03;0.80;;;;;;;;;;5052017;28;20637;-81
2023/05/12 10:27:29;;;;;;;1.40;0.70;;;;;;;;;;5052250;28;20202;-79
2023/05/12 10:29:57;;;;;;;1.70;0.80;;;;;;;;;;5051870;28;20284;-81
2023/05/12 10:32:25;;;;;;;3.03;0.98;;;;;;;;;;5051959;28;20230;-80
2023/05/12 10:34:53;;;;;;;4.95;0.70;;;;;;;;;;5052099;28;20254;-81
2023/05/12 10:37:23;;;;;;;1.30;0.77;;;;;;;;;;5051687;28;20640;-80
2023/05/12 10:39:51;;;;;;;2.22;1.08;;;;;;;;;;5051675;28;20687;-80
2023/05/12 10:42:23;;;;;;;3.00;1.05;;;;;;;;;;5051269;28;20291;-79
2023/05/12 10:44:51;;;;;;;2.63;0.95;;;;;;;;;;5051883;28;20195;-80
2023/05/12 10:47:18;;;;;;;2.15;1.00;;;;;;;;;;5051575;28;20554;-81
2023/05/12 10:49:46;;;;;;;2.35;1.00;;;;;;;;;;5051593;28;20255;-79
2023/05/12 10:52:13;;;;;;;2.10;1.00;;;;;;;;;;5051443;28;20247;-81
2023/05/12 10:54:44;;;;;;;1.40;1.05;;;;;;;;;;5051618;28;20241;-81
2023/05/12 10:57:14;;;;;;;3.95;1.30;;;;;;;;;;5050928;28;20740;-81
2023/05/12 10:59:48;;;;;;;1.40;1.00;;;;;;;;;;5051511;28;20227;-81
2023/05/12 11:02:17;;;;;;;2.88;0.80;;;;;;;;;;5051588;28;20206;-81
2023/05/12 11:04:47;;;;;;;2.35;1.05;;;;;;;;;;5051399;28;20203;-81
2023/05/12 11:07:15;;;;;;;3.38;1.10;;;;;;;;;;5051744;28;20283;-81
2023/05/12 11:09:44;;;;;;;2.17;1.10;;;;;;;;;;5051250;28;20287;-80
2023/05/12 11:12:12;;;;;;;3.40;1.23;;;;;;;;;;5050827;28;20329;-80
2023/05/12 11:14:40;;;;;;;3.38;1.20;;;;;;;;;;5051110;28;20373;-80
2023/05/12 11:17:08;;;;;;;1.92;0.93;;;;;;;;;;5051522;28;20934;-81
2023/05/12 11:19:35;;;;;;;2.83;1.15;;;;;;;;;;5051445;28;20656;-81
2023/05/12 11:22:06;;;;;;;3.28;1.05;;;;;;;;;;5051381;28;20227;-81
2023/05/12 11:24:33;;;;;;;2.42;1.10;;;;;;;;;;5051428;28;20195;-81
2023/05/12 11:27:03;;;;;;;2.13;1.10;;;;;;;;;;5050942;28;20283;-80
2023/05/12 11:29:30;;;;;;;2.05;1.00;;;;;;;;;;5050958;28;20203;-80
2023/05/12 11:31:59;;;;;;;3.03;1.30;;;;;;;;;;5051457;28;20234;-81
2023/05/12 11:34:27;;;;;;;3.10;1.00;;;;;;;;;;5051240;28;20204;-81
2023/05/12 11:36:55;;;;;;;2.10;0.90;;;;;;;;;;5054609;28;20290;-81
2023/05/12 11:39:23;;;;;;;2.20;1.10;;;;;;;;;;5055235;28;20298;-81
2023/05/12 11:41:51;;;;;;;2.55;1.10;;;;;;;;;;5054875;28;20200;-81
2023/05/12 11:44:20;;;;;;;3.67;1.00;;;;;;;;;;5055208;28;20196;-81
2023/05/12 11:47:05;;;;;;;2.72;1.15;;;;;;;;;;5055336;28;20234;-80
2023/05/12 11:49:33;;;;;;;2.17;0.90;;;;;;;;;;5054787;28;20262;-81
2023/05/12 11:52:02;;;;;;;2.72;1.20;;;;;;;;;;5054869;28;20240;-82
2023/05/12 11:54:30;;;;;;;2.58;1.30;;;;;;;;;;5036299;28;20290;-81
2023/05/12 11:56:58;;;;;;;4.32;1.15;;;;;;;;;;5034553;28;20641;-81
2023/05/12 11:59:30;;;;;;;4.30;1.27;;;;;;;;;;5034672;28;20192;-82
2023/05/12 12:01:58;;;;;;;3.10;1.10;;;;;;;;;;5034955;28;20291;-80
2023/05/12 12:04:32;;;;;;;4.32;1.30;;;;;;;;;;5034719;28;20291;-81
2023/05/12 12:07:00;;;;;;;2.28;1.17;;;;;;;;;;5034589;28;20192;-81
2023/05/12 12:09:31;;;;;;;3.20;1.25;;;;;;;;;;5026353;28;20625;-82
2023/05/12 12:11:58;;;;;;;3.33;1.30;;;;;;;;;;5033650;28;20239;-81
2023/05/12 12:14:26;;;;;;;6.22;1.30;;;;;;;;;;5035043;28;20703;-82
2023/05/12 12:16:54;;;;;;;3.78;1.00;;;;;;;;;;5032854;28;20724;-80
2023/05/12 12:19:21;;;;;;;1.80;1.08;;;;;;;;;;5033631;28;20295;-81
2023/05/12 12:21:49;;;;;;;2.75;1.20;;;;;;;;;;5033949;28;20253;-81
2023/05/12 12:24:16;;;;;;;2.13;1.00;;;;;;;;;;5034137;28;20299;-81
2023/05/12 12:26:43;;;;;;;3.70;1.20;;;;;;;;;;5032098;28;20200;-82
2023/05/12 12:29:10;;;;;;;2.13;1.10;;;;;;;;;;5033986;28;20284;-82
2023/05/12 12:31:37;;;;;;;2.05;1.00;;;;;;;;;;5034492;28;20224;-82
2023/05/12 12:34:06;;;;;;;1.77;1.33;;;;;;;;;;5022156;28;20650;-80
2023/05/12 12:36:34;;;;;;;2.72;1.30;;;;;;;;;;5029924;28;20200;-80
2023/05/12 12:39:01;;;;;;;6.78;1.60;;;;;;;;;;5033931;28;20228;-81
2023/05/12 12:41:28;;;;;;;3.38;1.38;;;;;;;;;;5034408;28;20335;-82
2023/05/12 12:43:56;;;;;;;2.60;1.20;;;;;;;;;;5033108;28;20279;-81
2023/05/12 12:46:23;;;;;;;3.53;1.25;;;;;;;;;;5033376;28;20255;-81
2023/05/12 12:48:50;;;;;;;3.08;1.27;;;;;;;;;;5033344;28;20334;-81
2023/05/12 12:51:19;;;;;;;2.22;1.30;;;;;;;;;;5034222;28;20258;-82
2023/05/12 12:53:46;;;;;;;2.45;1.10;;;;;;;;;;5033677;28;20279;-81
2023/05/12 12:56:14;;;;;;;3.33;1.00;;;;;;;;;;5033615;28;20201;-81
2023/05/12 12:58:41;;;;;;;3.70;1.20;;;;;;;;;;5033249;28;20289;-81
2023/05/12 13:01:08;;;;;;;2.80;1.13;;;;;;;;;;5034275;28;20242;-80
2023/05/12 13:03:36;;;;;;;2.72;1.35;;;;;;;;;;5031405;28;20216;-81
2023/05/12 13:06:03;;;;;;;4.38;1.27;;;;;;;;;;5032690;28;20287;-81
2023/05/12 13:08:32;;;;;;;2.22;1.10;;;;;;;;;;5030361;28;20565;-80
2023/05/12 13:10:59;;;;;;;2.13;1.20;;;;;;;;;;5028502;28;20208;-81
2023/05/12 13:13:26;;;;;;;2.10;1.30;;;;;;;;;;5032485;28;20208;-80
2023/05/12 13:15:54;;;;;;;2.55;1.42;;;;;;;;;;5052963;28;20657;-81
2023/05/12 13:18:21;;;;;;;2.30;1.17;;;;;;;;;;5042451;28;20298;-80
2023/05/12 13:20:48;;;;;;;2.92;1.33;;;;;;;;;;5033170;28;20201;-80
2023/05/12 13:23:15;;;;;;;5.53;1.50;;;;;;;;;;5032473;28;20200;-80
2023/05/12 13:25:45;;;;;;;3.80;1.42;;;;;;;;;;5030570;28;20243;-81
2023/05/12 13:28:12;;;;;;;4.57;1.55;;;;;;;;;;5031383;28;20205;-80
2023/05/12 13:30:39;;;;;;;5.68;1.70;;;;;;;;;;5028851;28;20299;-80
2023/05/12 13:33:06;;;;;;;2.72;1.73;;;;;;;;;;5030460;28;20315;-80
2023/05/12 13:35:33;;;;;;;3.58;1.70;;;;;;;;;;5031295;28;20319;-80
2023/05/12 13:38:01;;;;;;;3.72;1.60;;;;;;;;;;5030908;28;20633;-80
2023/05/12 13:40:28;;;;;;;4.60;1.90;;;;;;;;;;5030514;28;20206;-81
2023/05/12 13:42:56;;;;;;;2.97;1.60;;;;;;;;;;5029228;28;20304;-80
2023/05/12 13:45:23;;;;;;;2.90;1.67;;;;;;;;;;5029963;28;20251;-81
2023/05/12 13:47:51;;;;;;;3.53;1.40;;;;;;;;;;5030895;28;20207;-79
2023/05/12 13:50:18;;;;;;;2.83;1.38;;;;;;;;;;5031498;28;20263;-80
2023/05/12 13:52:46;;;;;;;3.17;1.42;;;;;;;;;;5030499;28;20314;-80
2023/05/12 13:55:13;;;;;;;8.25;1.38;;;;;;;;;;5030772;28;20207;-81
2023/05/12 13:57:41;;;;;;;3.67;1.80;;;;;;;;;;5032132;28;20661;-80
2023/05/12 14:00:12;;;;;;;4.57;2.10;;;;;;;;;;5032135;28;20720;-81
2023/05/12 14:02:39;;;;;;;3.47;1.80;;;;;;;;;;5018881;28;20576;-80
2023/05/12 14:05:07;;;;;;;2.95;2.00;;;;;;;;;;5012911;28;20224;-81
2023/05/12 14:07:34;;;;;;;3.85;2.00;;;;;;;;;;5012753;28;20243;-80
2023/05/12 14:10:01;;;;;;;4.30;2.08;;;;;;;;;;5012777;28;20233;-80
2023/05/12 14:12:29;;;;;;;4.40;1.90;;;;;;;;;;5042079;28;20622;-80
2023/05/12 14:14:58;;;;;;;3.47;2.00;;;;;;;;;;5031760;28;20684;-80
2023/05/12 14:17:26;;;;;;;5.90;2.25;;;;;;;;;;5039923;28;20196;-80
2023/05/12 14:19:54;;;;;;;5.20;2.10;;;;;;;;;;5051746;28;20223;-80
2023/05/12 14:22:21;;;;;;;4.72;2.20;;;;;;;;;;5033235;28;20205;-79
2023/05/12 14:24:48;;;;;;;3.55;1.83;;;;;;;;;;5031910;28;20283;-81
2023/05/12 14:27:15;;;;;;;4.78;2.28;;;;;;;;;;5031877;28;20291;-81
2023/05/12 14:29:43;;;;;;;4.53;1.95;;;;;;;;;;5031945;28;20232;-80
2023/05/12 14:32:10;;;;;;;5.45;2.95;;;;;;;;;;5029785;28;20889;-80
2023/05/12 14:34:38;;;;;;;5.13;2.35;;;;;;;;;;5029434;28;20224;-79
2023/05/12 14:37:06;;;;;;;3.72;1.85;;;;;;;;;;5018833;28;20661;-80
2023/05/12 14:39:33;;;;;;;9.82;2.53;;;;;;;;;;5034693;28;20210;-81
2023/05/12 14:42:00;;;;;;;5.35;2.70;;;;;;;;;;5027992;28;20734;-79